createdAt,value
2017-05-17T00:00:24.070Z,1022.73
2017-05-17T00:01:04.667Z,1022.71
2017-05-17T00:01:45.250Z,1022.74
2017-05-17T00:02:25.837Z,1022.76
2017-05-17T00:03:06.426Z,1022.71
2017-05-17T00:03:47.021Z,1022.75
2017-05-17T00:04:27.592Z,1022.73
2017-05-17T00:05:08.235Z,1022.75
2017-05-17T00:05:48.833Z,1022.72
2017-05-17T00:06:29.428Z,1022.74
2017-05-17T00:07:10.030Z,1022.73
2017-05-17T00:07:50.629Z,1022.75
2017-05-17T00:08:31.223Z,1022.7
2017-05-17T00:09:11.794Z,1022.7
2017-05-17T00:09:52.394Z,1022.71
2017-05-17T00:10:32.992Z,1022.7
2017-05-17T00:11:13.595Z,1022.71
2017-05-17T00:11:54.191Z,1022.68
2017-05-17T00:12:34.797Z,1022.7
2017-05-17T00:13:15.399Z,1022.68
2017-05-17T00:13:55.979Z,1022.7
2017-05-17T00:14:36.603Z,1022.72
2017-05-17T00:15:17.179Z,1022.67
2017-05-17T00:15:57.744Z,1022.69
2017-05-17T00:16:38.330Z,1022.64
2017-05-17T00:17:18.990Z,1022.65
2017-05-17T00:17:59.563Z,1022.68
2017-05-17T00:18:40.158Z,1022.65
2017-05-17T00:19:20.760Z,1022.64
2017-05-17T00:20:01.354Z,1022.68
2017-05-17T00:20:41.963Z,1022.66
2017-05-17T00:21:22.545Z,1022.66
2017-05-17T00:22:03.123Z,1022.66
2017-05-17T00:22:43.707Z,1022.65
2017-05-17T00:23:24.312Z,1022.63
2017-05-17T00:24:04.910Z,1022.62
2017-05-17T00:24:45.515Z,1022.61
2017-05-17T00:25:26.110Z,1022.6
2017-05-17T00:26:06.723Z,1022.57
2017-05-17T00:26:47.330Z,1022.58
2017-05-17T00:27:27.928Z,1022.59
2017-05-17T00:28:08.516Z,1022.56
2017-05-17T00:28:49.096Z,1022.55
2017-05-17T00:29:29.674Z,1022.59
2017-05-17T00:30:10.285Z,1022.55
2017-05-17T00:30:50.887Z,1022.54
2017-05-17T00:31:31.461Z,1022.53
2017-05-17T00:32:12.048Z,1022.52
2017-05-17T00:32:52.629Z,1022.56
2017-05-17T00:33:33.205Z,1022.53
2017-05-17T00:34:13.792Z,1022.53
2017-05-17T00:34:54.384Z,1022.55
2017-05-17T00:35:34.970Z,1022.52
2017-05-17T00:36:15.556Z,1022.58
2017-05-17T00:36:56.146Z,1022.57
2017-05-17T00:37:36.726Z,1022.56
2017-05-17T00:38:17.314Z,1022.49
2017-05-17T00:38:57.891Z,1022.55
2017-05-17T00:39:38.502Z,1022.52
2017-05-17T00:40:19.083Z,1022.53
2017-05-17T00:40:59.671Z,1022.48
2017-05-17T00:41:40.261Z,1022.5
2017-05-17T00:42:20.858Z,1022.48
2017-05-17T00:43:01.466Z,1022.51
2017-05-17T00:43:42.122Z,1022.54
2017-05-17T00:44:22.709Z,1022.53
2017-05-17T00:45:03.291Z,1022.53
2017-05-17T00:45:43.867Z,1022.54
2017-05-17T00:46:24.463Z,1022.54
2017-05-17T00:47:05.040Z,1022.55
2017-05-17T00:47:45.625Z,1022.51
2017-05-17T00:48:26.202Z,1022.52
2017-05-17T00:49:06.769Z,1022.5
2017-05-17T00:49:47.375Z,1022.57
2017-05-17T00:50:27.932Z,1022.55
2017-05-17T00:51:08.507Z,1022.53
2017-05-17T00:51:49.083Z,1022.52
2017-05-17T00:52:29.735Z,1022.55
2017-05-17T00:53:10.350Z,1022.53
2017-05-17T00:53:50.951Z,1022.53
2017-05-17T00:54:31.526Z,1022.56
2017-05-17T00:55:12.143Z,1022.53
2017-05-17T00:55:52.736Z,1022.56
2017-05-17T00:56:33.329Z,1022.54
2017-05-17T00:57:13.905Z,1022.5
2017-05-17T00:57:54.491Z,1022.51
2017-05-17T00:58:35.088Z,1022.51
2017-05-17T00:59:15.688Z,1022.52
2017-05-17T00:59:56.306Z,1022.49
2017-05-17T01:00:36.927Z,1022.49
2017-05-17T01:01:17.526Z,1022.48
2017-05-17T01:01:58.109Z,1022.48
2017-05-17T01:02:38.696Z,1022.5
2017-05-17T01:03:19.270Z,1022.48
2017-05-17T01:03:59.875Z,1022.47
2017-05-17T01:04:40.443Z,1022.45
2017-05-17T01:05:21.024Z,1022.46
2017-05-17T01:06:01.606Z,1022.45
2017-05-17T01:06:42.223Z,1022.43
2017-05-17T01:07:22.804Z,1022.44
2017-05-17T01:08:03.410Z,1022.44
2017-05-17T01:08:43.974Z,1022.44
2017-05-17T01:09:24.557Z,1022.4
2017-05-17T01:10:05.132Z,1022.4
2017-05-17T01:10:45.716Z,1022.42
2017-05-17T01:11:26.281Z,1022.38
2017-05-17T01:12:06.875Z,1022.37
2017-05-17T01:12:47.450Z,1022.37
2017-05-17T01:13:28.051Z,1022.36
2017-05-17T01:14:08.621Z,1022.32
2017-05-17T01:14:49.211Z,1022.41
2017-05-17T01:15:29.842Z,1022.36
2017-05-17T01:16:10.419Z,1022.34
2017-05-17T01:16:50.997Z,1022.37
2017-05-17T01:17:31.569Z,1022.32
2017-05-17T01:18:12.136Z,1022.3
2017-05-17T01:18:52.781Z,1022.28
2017-05-17T01:19:33.365Z,1022.27
2017-05-17T01:20:13.950Z,1022.25
2017-05-17T01:20:54.537Z,1022.24
2017-05-17T01:21:35.142Z,1022.24
2017-05-17T01:22:15.736Z,1022.18
2017-05-17T01:22:56.339Z,1022.21
2017-05-17T01:23:36.914Z,1022.2
2017-05-17T01:24:17.543Z,1022.2
2017-05-17T01:24:58.133Z,1022.23
2017-05-17T01:25:38.717Z,1022.25
2017-05-17T01:26:19.309Z,1022.22
2017-05-17T01:26:59.902Z,1022.23
2017-05-17T01:27:40.489Z,1022.23
2017-05-17T01:28:21.059Z,1022.23
2017-05-17T01:29:01.645Z,1022.17
2017-05-17T01:29:42.237Z,1022.15
2017-05-17T01:30:22.815Z,1022.2
2017-05-17T01:31:03.396Z,1022.11
2017-05-17T01:31:43.987Z,1022.14
2017-05-17T01:32:24.587Z,1022.15
2017-05-17T01:33:05.184Z,1022.12
2017-05-17T01:33:45.764Z,1022.12
2017-05-17T01:34:26.331Z,1022.13
2017-05-17T01:35:06.930Z,1022.11
2017-05-17T01:35:47.557Z,1022.12
2017-05-17T01:36:28.095Z,1022.14
2017-05-17T01:37:08.676Z,1022.11
2017-05-17T01:37:49.268Z,1022.11
2017-05-17T01:38:29.846Z,1022.06
2017-05-17T01:39:10.450Z,1022.05
2017-05-17T01:39:51.031Z,1022.08
2017-05-17T01:40:31.634Z,1022.08
2017-05-17T01:41:12.215Z,1022.02
2017-05-17T01:41:52.831Z,1022.03
2017-05-17T01:42:33.408Z,1022.02
2017-05-17T01:43:13.992Z,1021.98
2017-05-17T01:43:54.584Z,1022.07
2017-05-17T01:44:35.170Z,1022
2017-05-17T01:45:15.773Z,1022
2017-05-17T01:45:56.371Z,1021.99
2017-05-17T01:46:36.951Z,1022.02
2017-05-17T01:47:17.538Z,1022
2017-05-17T01:47:58.156Z,1022.01
2017-05-17T01:48:38.822Z,1022
2017-05-17T01:49:19.415Z,1022.02
2017-05-17T01:50:00.034Z,1022.01
2017-05-17T01:50:40.661Z,1021.97
2017-05-17T01:51:21.243Z,1021.99
2017-05-17T01:52:01.836Z,1021.97
2017-05-17T01:52:42.426Z,1021.99
2017-05-17T01:53:23.032Z,1021.96
2017-05-17T01:54:03.635Z,1021.94
2017-05-17T01:54:44.215Z,1021.93
2017-05-17T01:55:24.795Z,1021.9
2017-05-17T01:56:05.383Z,1021.91
2017-05-17T01:56:45.964Z,1021.86
2017-05-17T01:57:26.579Z,1021.88
2017-05-17T01:58:07.138Z,1021.85
2017-05-17T01:58:47.751Z,1021.86
2017-05-17T01:59:28.368Z,1021.89
2017-05-17T02:00:08.994Z,1021.84
2017-05-17T02:00:49.584Z,1021.82
2017-05-17T02:01:30.161Z,1021.84
2017-05-17T02:02:10.746Z,1021.82
2017-05-17T02:02:51.331Z,1021.79
2017-05-17T02:03:31.910Z,1021.82
2017-05-17T02:04:12.526Z,1021.79
2017-05-17T02:04:53.149Z,1021.81
2017-05-17T02:05:33.765Z,1021.84
2017-05-17T02:06:14.360Z,1021.78
2017-05-17T02:06:54.915Z,1021.74
2017-05-17T02:07:35.500Z,1021.77
2017-05-17T02:08:16.087Z,1021.75
2017-05-17T02:08:56.693Z,1021.78
2017-05-17T02:09:37.289Z,1021.77
2017-05-17T02:10:17.884Z,1021.76
2017-05-17T02:10:58.455Z,1021.8
2017-05-17T02:11:39.040Z,1021.75
2017-05-17T02:12:19.608Z,1021.75
2017-05-17T02:13:00.193Z,1021.77
2017-05-17T02:13:40.788Z,1021.75
2017-05-17T02:14:21.386Z,1021.76
2017-05-17T02:15:02.019Z,1021.78
2017-05-17T02:15:42.652Z,1021.74
2017-05-17T02:16:23.203Z,1021.79
2017-05-17T02:17:03.782Z,1021.77
2017-05-17T02:17:44.419Z,1021.81
2017-05-17T02:18:25.012Z,1021.78
2017-05-17T02:19:05.616Z,1021.85
2017-05-17T02:19:46.177Z,1021.83
2017-05-17T02:20:26.753Z,1021.78
2017-05-17T02:21:07.330Z,1021.79
2017-05-17T02:21:47.964Z,1021.82
2017-05-17T02:22:28.545Z,1021.79
2017-05-17T02:23:09.128Z,1021.73
2017-05-17T02:23:49.783Z,1021.79
2017-05-17T02:24:30.380Z,1021.76
2017-05-17T02:25:10.966Z,1021.76
2017-05-17T02:25:51.575Z,1021.76
2017-05-17T02:26:32.185Z,1021.79
2017-05-17T02:27:12.820Z,1021.78
2017-05-17T02:27:53.400Z,1021.75
2017-05-17T02:28:33.971Z,1021.78
2017-05-17T02:29:14.549Z,1021.78
2017-05-17T02:29:55.123Z,1021.76
2017-05-17T02:30:35.714Z,1021.78
2017-05-17T02:31:16.306Z,1021.78
2017-05-17T02:31:56.894Z,1021.76
2017-05-17T02:32:37.495Z,1021.76
2017-05-17T02:33:18.081Z,1021.77
2017-05-17T02:33:58.656Z,1021.76
2017-05-17T02:34:39.263Z,1021.74
2017-05-17T02:35:19.903Z,1021.77
2017-05-17T02:36:00.449Z,1021.72
2017-05-17T02:36:41.034Z,1021.75
2017-05-17T02:37:21.630Z,1021.71
2017-05-17T02:38:02.203Z,1021.69
2017-05-17T02:38:42.788Z,1021.73
2017-05-17T02:39:23.370Z,1021.71
2017-05-17T02:40:03.955Z,1021.7
2017-05-17T02:40:44.543Z,1021.69
2017-05-17T02:41:25.126Z,1021.69
2017-05-17T02:42:05.760Z,1021.71
2017-05-17T02:42:46.335Z,1021.69
2017-05-17T02:43:26.922Z,1021.69
2017-05-17T02:44:07.505Z,1021.71
2017-05-17T02:44:48.103Z,1021.69
2017-05-17T02:45:28.678Z,1021.71
2017-05-17T02:46:09.251Z,1021.68
2017-05-17T02:46:49.828Z,1021.71
2017-05-17T02:47:30.425Z,1021.72
2017-05-17T02:48:11.011Z,1021.7
2017-05-17T02:48:51.591Z,1021.67
2017-05-17T02:49:32.177Z,1021.66
2017-05-17T02:50:12.755Z,1021.7
2017-05-17T02:50:53.337Z,1021.67
2017-05-17T02:51:33.902Z,1021.68
2017-05-17T02:52:14.472Z,1021.69
2017-05-17T02:52:55.079Z,1021.66
2017-05-17T02:53:35.650Z,1021.68
2017-05-17T02:54:16.260Z,1021.68
2017-05-17T02:54:56.827Z,1021.68
2017-05-17T02:55:37.418Z,1021.68
2017-05-17T02:56:17.992Z,1021.63
2017-05-17T02:56:58.557Z,1021.65
2017-05-17T02:57:39.172Z,1021.67
2017-05-17T02:58:19.746Z,1021.64
2017-05-17T02:59:00.334Z,1021.64
2017-05-17T02:59:40.943Z,1021.66
2017-05-17T03:00:21.516Z,1021.66
2017-05-17T03:01:02.138Z,1021.63
2017-05-17T03:01:42.701Z,1021.62
2017-05-17T03:02:23.284Z,1021.65
2017-05-17T03:03:03.865Z,1021.64
2017-05-17T03:03:44.473Z,1021.64
2017-05-17T03:04:25.062Z,1021.64
2017-05-17T03:05:05.664Z,1021.64
2017-05-17T03:05:46.259Z,1021.62
2017-05-17T03:06:26.857Z,1021.65
2017-05-17T03:07:07.452Z,1021.65
2017-05-17T03:07:48.067Z,1021.63
2017-05-17T03:08:28.648Z,1021.63
2017-05-17T03:09:09.257Z,1021.62
2017-05-17T03:09:49.829Z,1021.6
2017-05-17T03:10:30.432Z,1021.63
2017-05-17T03:11:11.046Z,1021.62
2017-05-17T03:11:51.626Z,1021.57
2017-05-17T03:12:32.209Z,1021.63
2017-05-17T03:13:12.812Z,1021.65
2017-05-17T03:13:53.391Z,1021.58
2017-05-17T03:14:33.982Z,1021.57
2017-05-17T03:15:14.563Z,1021.6
2017-05-17T03:15:55.138Z,1021.58
2017-05-17T03:16:35.749Z,1021.61
2017-05-17T03:17:16.307Z,1021.57
2017-05-17T03:17:56.895Z,1021.56
2017-05-17T03:18:37.490Z,1021.59
2017-05-17T03:19:18.063Z,1021.51
2017-05-17T03:19:58.647Z,1021.55
2017-05-17T03:20:39.244Z,1021.5
2017-05-17T03:21:19.849Z,1021.5
2017-05-17T03:22:00.444Z,1021.53
2017-05-17T03:22:41.026Z,1021.49
2017-05-17T03:23:21.596Z,1021.48
2017-05-17T03:24:02.187Z,1021.47
2017-05-17T03:24:42.780Z,1021.53
2017-05-17T03:25:23.402Z,1021.5
2017-05-17T03:26:03.986Z,1021.51
2017-05-17T03:26:44.574Z,1021.49
2017-05-17T03:27:25.164Z,1021.49
2017-05-17T03:28:05.754Z,1021.5
2017-05-17T03:28:46.330Z,1021.51
2017-05-17T03:29:26.917Z,1021.53
2017-05-17T03:30:07.492Z,1021.5
2017-05-17T03:30:48.081Z,1021.52
2017-05-17T03:31:28.655Z,1021.54
2017-05-17T03:32:09.249Z,1021.48
2017-05-17T03:32:49.872Z,1021.51
2017-05-17T03:33:30.456Z,1021.52
2017-05-17T03:34:11.029Z,1021.53
2017-05-17T03:34:51.622Z,1021.53
2017-05-17T03:35:32.193Z,1021.5
2017-05-17T03:36:12.765Z,1021.49
2017-05-17T03:36:53.384Z,1021.52
2017-05-17T03:37:33.977Z,1021.51
2017-05-17T03:38:14.545Z,1021.52
2017-05-17T03:38:55.129Z,1021.54
2017-05-17T03:39:35.732Z,1021.54
2017-05-17T03:40:16.292Z,1021.51
2017-05-17T03:40:56.885Z,1021.5
2017-05-17T03:41:37.516Z,1021.51
2017-05-17T03:42:18.135Z,1021.5
2017-05-17T03:42:58.738Z,1021.47
2017-05-17T03:43:39.321Z,1021.48
2017-05-17T03:44:19.955Z,1021.51
2017-05-17T03:45:00.493Z,1021.54
2017-05-17T03:45:41.103Z,1021.48
2017-05-17T03:46:21.652Z,1021.5
2017-05-17T03:47:02.221Z,1021.52
2017-05-17T03:47:42.802Z,1021.49
2017-05-17T03:48:23.384Z,1021.5
2017-05-17T03:49:03.978Z,1021.51
2017-05-17T03:49:44.551Z,1021.51
2017-05-17T03:50:25.132Z,1021.49
2017-05-17T03:51:05.716Z,1021.46
2017-05-17T03:51:46.300Z,1021.49
2017-05-17T03:52:26.875Z,1021.44
2017-05-17T03:53:07.444Z,1021.49
2017-05-17T03:53:48.014Z,1021.5
2017-05-17T03:54:28.609Z,1021.47
2017-05-17T03:55:09.203Z,1021.5
2017-05-17T03:55:49.792Z,1021.48
2017-05-17T03:56:30.362Z,1021.46
2017-05-17T03:57:10.951Z,1021.48
2017-05-17T03:57:51.539Z,1021.46
2017-05-17T03:58:32.116Z,1021.45
2017-05-17T03:59:12.693Z,1021.46
2017-05-17T03:59:53.283Z,1021.48
2017-05-17T04:00:33.871Z,1021.49
2017-05-17T04:01:14.467Z,1021.44
2017-05-17T04:01:55.050Z,1021.52
2017-05-17T04:02:35.615Z,1021.52
2017-05-17T04:03:16.210Z,1021.51
2017-05-17T04:03:56.795Z,1021.48
2017-05-17T04:04:37.376Z,1021.48
2017-05-17T04:05:17.968Z,1021.42
2017-05-17T04:05:58.566Z,1021.45
2017-05-17T04:06:39.159Z,1021.47
2017-05-17T04:07:19.754Z,1021.44
2017-05-17T04:08:00.348Z,1021.45
2017-05-17T04:08:40.927Z,1021.42
2017-05-17T04:09:21.507Z,1021.48
2017-05-17T04:10:02.108Z,1021.42
2017-05-17T04:10:42.705Z,1021.4
2017-05-17T04:11:23.306Z,1021.42
2017-05-17T04:12:03.894Z,1021.43
2017-05-17T04:12:44.474Z,1021.41
2017-05-17T04:13:25.084Z,1021.41
2017-05-17T04:14:05.697Z,1021.42
2017-05-17T04:14:46.282Z,1021.42
2017-05-17T04:15:26.892Z,1021.41
2017-05-17T04:16:07.469Z,1021.43
2017-05-17T04:16:48.065Z,1021.43
2017-05-17T04:17:28.686Z,1021.46
2017-05-17T04:18:09.270Z,1021.43
2017-05-17T04:18:49.877Z,1021.41
2017-05-17T04:19:30.515Z,1021.46
2017-05-17T04:20:11.099Z,1021.43
2017-05-17T04:20:51.704Z,1021.45
2017-05-17T04:21:32.281Z,1021.42
2017-05-17T04:22:12.855Z,1021.41
2017-05-17T04:22:53.448Z,1021.41
2017-05-17T04:23:34.046Z,1021.44
2017-05-17T04:24:14.636Z,1021.39
2017-05-17T04:24:55.218Z,1021.42
2017-05-17T04:25:35.801Z,1021.38
2017-05-17T04:26:16.363Z,1021.4
2017-05-17T04:26:56.948Z,1021.37
2017-05-17T04:27:37.517Z,1021.4
2017-05-17T04:28:18.100Z,1021.35
2017-05-17T04:28:58.774Z,1021.35
2017-05-17T04:29:39.382Z,1021.34
2017-05-17T04:30:19.960Z,1021.35
2017-05-17T04:31:00.559Z,1021.33
2017-05-17T04:31:41.157Z,1021.3
2017-05-17T04:32:21.744Z,1021.33
2017-05-17T04:33:02.328Z,1021.3
2017-05-17T04:33:42.929Z,1021.28
2017-05-17T04:34:23.505Z,1021.25
2017-05-17T04:35:04.084Z,1021.26
2017-05-17T04:35:44.693Z,1021.25
2017-05-17T04:36:25.282Z,1021.26
2017-05-17T04:37:05.885Z,1021.22
2017-05-17T04:37:46.457Z,1021.22
2017-05-17T04:38:27.045Z,1021.24
2017-05-17T04:39:07.644Z,1021.23
2017-05-17T04:39:48.230Z,1021.22
2017-05-17T04:40:28.803Z,1021.2
2017-05-17T04:41:09.413Z,1021.24
2017-05-17T04:41:49.993Z,1021.22
2017-05-17T04:42:30.611Z,1021.25
2017-05-17T04:43:11.198Z,1021.23
2017-05-17T04:43:51.838Z,1021.19
2017-05-17T04:44:32.413Z,1021.19
2017-05-17T04:45:13.102Z,1021.2
2017-05-17T04:45:53.670Z,1021.19
2017-05-17T04:46:34.276Z,1021.2
2017-05-17T04:47:14.940Z,1021.17
2017-05-17T04:47:55.530Z,1021.16
2017-05-17T04:48:36.122Z,1021.15
2017-05-17T04:49:16.697Z,1021.18
2017-05-17T04:49:57.298Z,1021.16
2017-05-17T04:50:37.881Z,1021.15
2017-05-17T04:51:18.453Z,1021.15
2017-05-17T04:51:59.073Z,1021.18
2017-05-17T04:52:39.745Z,1021.14
2017-05-17T04:53:20.343Z,1021.19
2017-05-17T04:54:00.935Z,1021.17
2017-05-17T04:54:41.536Z,1021.23
2017-05-17T04:55:22.135Z,1021.17
2017-05-17T04:56:02.749Z,1021.18
2017-05-17T04:56:43.340Z,1021.18
2017-05-17T04:57:23.925Z,1021.18
2017-05-17T04:58:04.512Z,1021.22
2017-05-17T04:58:45.097Z,1021.21
2017-05-17T04:59:25.686Z,1021.21
2017-05-17T05:00:06.274Z,1021.22
2017-05-17T05:00:46.894Z,1021.22
2017-05-17T05:01:27.485Z,1021.24
2017-05-17T05:02:08.073Z,1021.23
2017-05-17T05:02:48.669Z,1021.28
2017-05-17T05:03:29.243Z,1021.22
2017-05-17T05:04:09.852Z,1021.23
2017-05-17T05:04:50.449Z,1021.24
2017-05-17T05:05:31.047Z,1021.25
2017-05-17T05:06:11.626Z,1021.27
2017-05-17T05:06:52.227Z,1021.27
2017-05-17T05:07:32.826Z,1021.27
2017-05-17T05:08:13.430Z,1021.26
2017-05-17T05:08:54.025Z,1021.26
2017-05-17T05:09:34.599Z,1021.27
2017-05-17T05:10:15.209Z,1021.27
2017-05-17T05:10:55.792Z,1021.34
2017-05-17T05:11:36.389Z,1021.31
2017-05-17T05:12:16.984Z,1021.29
2017-05-17T05:12:57.625Z,1021.29
2017-05-17T05:13:38.195Z,1021.28
2017-05-17T05:14:18.778Z,1021.28
2017-05-17T05:14:59.373Z,1021.26
2017-05-17T05:15:39.972Z,1021.27
2017-05-17T05:16:20.582Z,1021.26
2017-05-17T05:17:01.227Z,1021.25
2017-05-17T05:17:41.837Z,1021.24
2017-05-17T05:18:22.494Z,1021.24
2017-05-17T05:19:03.077Z,1021.21
2017-05-17T05:19:43.668Z,1021.22
2017-05-17T05:20:24.252Z,1021.22
2017-05-17T05:21:04.879Z,1021.23
2017-05-17T05:21:45.636Z,1021.21
2017-05-17T05:22:26.213Z,1021.18
2017-05-17T05:23:06.823Z,1021.2
2017-05-17T05:23:47.417Z,1021.18
2017-05-17T05:24:28.051Z,1021.17
2017-05-17T05:25:08.642Z,1021.19
2017-05-17T05:25:49.251Z,1021.21
2017-05-17T05:26:29.814Z,1021.15
2017-05-17T05:27:10.420Z,1021.17
2017-05-17T05:27:51.010Z,1021.16
2017-05-17T05:28:31.729Z,1021.18
2017-05-17T05:29:12.306Z,1021.18
2017-05-17T05:29:52.877Z,1021.16
2017-05-17T05:30:33.458Z,1021.19
2017-05-17T05:31:14.048Z,1021.21
2017-05-17T05:31:54.651Z,1021.24
2017-05-17T05:32:35.244Z,1021.22
2017-05-17T05:33:15.820Z,1021.29
2017-05-17T05:33:56.401Z,1021.44
2017-05-17T05:34:36.977Z,1021.46
2017-05-17T05:35:17.572Z,1021.32
2017-05-17T05:35:58.164Z,1021.26
2017-05-17T05:36:38.754Z,1021.26
2017-05-17T05:37:19.323Z,1021.37
2017-05-17T05:37:59.933Z,1021.58
2017-05-17T05:38:40.513Z,1021.69
2017-05-17T05:39:21.087Z,1021.69
2017-05-17T05:40:01.674Z,1021.69
2017-05-17T05:40:42.267Z,1021.73
2017-05-17T05:41:22.830Z,1021.71
2017-05-17T05:42:03.468Z,1021.78
2017-05-17T05:42:44.120Z,1021.81
2017-05-17T05:43:24.729Z,1021.76
2017-05-17T05:44:05.315Z,1021.84
2017-05-17T05:44:45.888Z,1021.85
2017-05-17T05:45:26.475Z,1021.84
2017-05-17T05:46:07.069Z,1021.86
2017-05-17T05:46:47.659Z,1021.89
2017-05-17T05:47:28.234Z,1021.88
2017-05-17T05:48:08.849Z,1021.86
2017-05-17T05:48:49.446Z,1021.91
2017-05-17T05:49:30.038Z,1021.92
2017-05-17T05:50:10.668Z,1021.89
2017-05-17T05:50:51.267Z,1021.97
2017-05-17T05:51:31.854Z,1022
2017-05-17T05:52:12.441Z,1021.99
2017-05-17T05:52:53.015Z,1022.01
2017-05-17T05:53:33.623Z,1022.07
2017-05-17T05:54:14.203Z,1022.07
2017-05-17T05:54:54.837Z,1022.08
2017-05-17T05:55:35.397Z,1022.17
2017-05-17T05:56:16.004Z,1022.18
2017-05-17T05:56:56.596Z,1022.29
2017-05-17T05:57:37.188Z,1022.36
2017-05-17T05:58:17.772Z,1022.43
2017-05-17T05:58:58.384Z,1022.5
2017-05-17T05:59:38.970Z,1022.57
2017-05-17T06:00:19.562Z,1022.66
2017-05-17T06:01:00.166Z,1022.67
2017-05-17T06:01:40.773Z,1022.71
2017-05-17T06:02:21.381Z,1022.65
2017-05-17T06:03:01.964Z,1022.6
2017-05-17T06:03:42.572Z,1022.65
2017-05-17T06:04:23.184Z,1022.75
2017-05-17T06:05:03.768Z,1022.88
2017-05-17T06:05:44.359Z,1022.82
2017-05-17T06:06:24.977Z,1022.69
2017-05-17T06:07:05.608Z,1022.64
2017-05-17T06:07:46.227Z,1022.66
2017-05-17T06:08:26.838Z,1022.61
2017-05-17T06:09:07.420Z,1022.59
2017-05-17T06:09:48.017Z,1022.5
2017-05-17T06:10:28.600Z,1022.43
2017-05-17T06:11:09.233Z,1022.41
2017-05-17T06:11:49.859Z,1022.28
2017-05-17T06:12:30.453Z,1022.1
2017-05-17T06:13:11.443Z,1021.89
2017-05-17T06:13:52.042Z,1021.7
2017-05-17T06:14:32.641Z,1021.59
2017-05-17T06:15:13.256Z,1021.58
2017-05-17T06:15:53.837Z,1021.55
2017-05-17T06:16:34.429Z,1021.56
2017-05-17T06:17:15.013Z,1021.54
2017-05-17T06:17:55.696Z,1021.52
2017-05-17T06:18:36.605Z,1021.54
2017-05-17T06:19:17.487Z,1021.58
2017-05-17T06:19:58.437Z,1021.6
2017-05-17T06:20:39.246Z,1021.78
2017-05-17T06:21:19.850Z,1022.21
2017-05-17T06:22:00.441Z,1022.7
2017-05-17T06:22:41.441Z,1023.13
2017-05-17T06:23:22.060Z,1023.15
2017-05-17T06:24:02.645Z,1022.77
2017-05-17T06:24:43.242Z,1022.46
2017-05-17T06:25:23.825Z,1022.42
2017-05-17T06:26:04.853Z,1022.4
2017-05-17T06:26:45.553Z,1022.3
2017-05-17T06:27:26.965Z,1022.28
2017-05-17T06:28:07.685Z,1022.31
2017-05-17T06:28:48.388Z,1022.41
2017-05-17T06:29:28.995Z,1022.49
2017-05-17T06:30:09.729Z,1022.5
2017-05-17T06:30:50.374Z,1022.44
2017-05-17T06:31:30.950Z,1022.28
2017-05-17T06:32:11.542Z,1021.92
2017-05-17T06:32:52.125Z,1021.64
2017-05-17T06:33:32.743Z,1021.5
2017-05-17T06:34:13.337Z,1021.49
2017-05-17T06:34:54.033Z,1021.42
2017-05-17T06:35:34.651Z,1021.38
2017-05-17T06:36:15.213Z,1021.43
2017-05-17T06:36:55.806Z,1021.42
2017-05-17T06:37:36.392Z,1021.41
2017-05-17T06:38:16.979Z,1021.39
2017-05-17T06:38:57.580Z,1021.39
2017-05-17T06:39:38.197Z,1021.38
2017-05-17T06:40:18.788Z,1021.4
2017-05-17T06:40:59.372Z,1021.36
2017-05-17T06:41:39.960Z,1021.43
2017-05-17T06:42:20.563Z,1021.42
2017-05-17T06:43:01.158Z,1021.39
2017-05-17T06:43:41.786Z,1021.38
2017-05-17T06:44:22.393Z,1021.39
2017-05-17T06:45:02.989Z,1021.42
2017-05-17T06:45:43.565Z,1021.38
2017-05-17T06:46:24.172Z,1021.38
2017-05-17T06:47:04.782Z,1021.39
2017-05-17T06:47:45.379Z,1021.41
2017-05-17T06:48:25.970Z,1021.38
2017-05-17T06:49:06.583Z,1021.37
2017-05-17T06:49:47.167Z,1021.36
2017-05-17T06:50:27.765Z,1021.33
2017-05-17T06:51:08.356Z,1021.36
2017-05-17T06:51:48.967Z,1021.35
2017-05-17T06:52:29.557Z,1021.36
2017-05-17T06:53:10.134Z,1021.33
2017-05-17T06:53:50.723Z,1021.37
2017-05-17T06:54:31.313Z,1021.34
2017-05-17T06:55:11.889Z,1021.35
2017-05-17T06:55:52.474Z,1021.34
2017-05-17T06:56:33.074Z,1021.3
2017-05-17T06:57:13.678Z,1021.31
2017-05-17T06:57:54.289Z,1021.3
2017-05-17T06:58:34.889Z,1021.31
2017-05-17T06:59:16.922Z,1021.31
2017-05-17T07:00:16.006Z,1021.34
2017-05-17T07:01:00.220Z,1021.32
2017-05-17T07:01:40.817Z,1021.32
2017-05-17T07:02:21.416Z,1021.32
2017-05-17T07:03:02.016Z,1021.37
2017-05-17T07:03:42.612Z,1021.3
2017-05-17T07:04:23.228Z,1021.31
2017-05-17T07:05:03.842Z,1021.37
2017-05-17T07:05:44.457Z,1021.3
2017-05-17T07:06:25.056Z,1021.34
2017-05-17T07:07:05.666Z,1021.36
2017-05-17T07:07:46.252Z,1021.32
2017-05-17T07:08:26.841Z,1021.3
2017-05-17T07:09:07.451Z,1021.29
2017-05-17T07:09:48.061Z,1021.29
2017-05-17T07:10:28.665Z,1021.27
2017-05-17T07:11:09.250Z,1021.28
2017-05-17T07:11:49.848Z,1021.26
2017-05-17T07:12:30.468Z,1021.3
2017-05-17T07:13:11.069Z,1021.27
2017-05-17T07:13:51.644Z,1021.26
2017-05-17T07:14:32.853Z,1021.28
2017-05-17T07:15:13.452Z,1021.26
2017-05-17T07:15:54.051Z,1021.26
2017-05-17T07:16:34.665Z,1021.25
2017-05-17T07:17:15.276Z,1021.21
2017-05-17T07:17:55.855Z,1021.23
2017-05-17T07:18:36.558Z,1021.24
2017-05-17T07:19:17.180Z,1021.22
2017-05-17T07:19:57.808Z,1021.2
2017-05-17T07:20:38.417Z,1021.24
2017-05-17T07:21:19.068Z,1021.28
2017-05-17T07:21:59.661Z,1021.21
2017-05-17T07:22:40.264Z,1021.33
2017-05-17T07:23:20.871Z,1021.34
2017-05-17T07:24:01.476Z,1021.36
2017-05-17T07:24:42.136Z,1021.36
2017-05-17T07:25:22.687Z,1021.37
2017-05-17T07:26:03.272Z,1021.38
2017-05-17T07:26:43.845Z,1021.28
2017-05-17T07:27:24.442Z,1021.32
2017-05-17T07:28:05.065Z,1021.34
2017-05-17T07:28:45.650Z,1021.27
2017-05-17T07:29:26.241Z,1021.26
2017-05-17T07:30:06.835Z,1021.21
2017-05-17T07:30:47.441Z,1021.22
2017-05-17T07:31:28.058Z,1021.22
2017-05-17T07:32:08.649Z,1021.21
2017-05-17T07:32:49.246Z,1021.26
2017-05-17T07:33:29.855Z,1021.19
2017-05-17T07:34:10.435Z,1021.22
2017-05-17T07:34:51.044Z,1021.22
2017-05-17T07:35:31.648Z,1021.2
2017-05-17T07:36:12.317Z,1021.16
2017-05-17T07:36:52.959Z,1021.13
2017-05-17T07:37:33.472Z,1021.11
2017-05-17T07:38:14.062Z,1021.15
2017-05-17T07:38:54.669Z,1021.14
2017-05-17T07:39:35.636Z,1021.12
2017-05-17T07:40:16.319Z,1021.08
2017-05-17T07:40:56.906Z,1021.09
2017-05-17T07:41:37.540Z,1021.05
2017-05-17T07:42:18.164Z,1021.08
2017-05-17T07:42:58.748Z,1021.06
2017-05-17T07:43:39.374Z,1021.05
2017-05-17T07:44:19.992Z,1021.04
2017-05-17T07:45:00.607Z,1021.02
2017-05-17T07:45:41.302Z,1021
2017-05-17T07:46:21.969Z,1020.91
2017-05-17T07:47:02.687Z,1020.96
2017-05-17T07:47:43.338Z,1020.98
2017-05-17T07:48:23.963Z,1020.96
2017-05-17T07:49:04.705Z,1020.95
2017-05-17T07:49:45.403Z,1020.99
2017-05-17T07:50:26.047Z,1020.96
2017-05-17T07:51:06.725Z,1020.96
2017-05-17T07:51:47.456Z,1020.94
2017-05-17T07:52:28.094Z,1020.95
2017-05-17T07:53:08.713Z,1020.92
2017-05-17T07:53:49.329Z,1020.94
2017-05-17T07:54:29.936Z,1020.88
2017-05-17T07:55:10.607Z,1020.9
2017-05-17T07:55:51.223Z,1020.87
2017-05-17T07:56:32.002Z,1020.85
2017-05-17T07:57:12.627Z,1020.81
2017-05-17T07:57:53.260Z,1020.8
2017-05-17T07:58:33.878Z,1020.84
2017-05-17T07:59:14.486Z,1020.85
2017-05-17T07:59:55.156Z,1020.78
2017-05-17T08:00:35.757Z,1020.8
2017-05-17T08:01:16.401Z,1020.8
2017-05-17T08:01:57.031Z,1020.8
2017-05-17T08:02:37.649Z,1020.77
2017-05-17T08:03:18.262Z,1020.76
2017-05-17T08:03:58.896Z,1020.72
2017-05-17T08:04:39.520Z,1020.76
2017-05-17T08:05:20.176Z,1020.72
2017-05-17T08:06:00.961Z,1020.74
2017-05-17T08:06:41.673Z,1020.75
2017-05-17T08:07:22.289Z,1020.7
2017-05-17T08:08:02.915Z,1020.71
2017-05-17T08:08:43.528Z,1020.73
2017-05-17T08:09:24.175Z,1020.76
2017-05-17T08:10:04.817Z,1020.72
2017-05-17T08:10:45.454Z,1020.69
2017-05-17T08:11:26.060Z,1020.72
2017-05-17T08:12:06.661Z,1020.73
2017-05-17T08:12:47.290Z,1020.77
2017-05-17T08:13:27.897Z,1020.75